SEKCJA WYDRUKÓW, pokaż »

TAF EPBY 280530Z 2806/2906 34005KT 9999 BKN025
PROB30 TEMPO 2806/2810 BKN014
BECMG 2816/2819 27010KT
TEMPO 2823/2906 BKN012
PROB40 TEMPO 2901/2906 -SN OVC006=

TAF EPGD 280530Z 2806/2906 VRB03KT 9999 OVC022
PROB40 2806/2810 4000 -SN BR BKN005 BKN013
BECMG 2815/2818 26012KT
BECMG 2901/2904 3000 -DZ BR BKN005 OVC012=

TAF EPKK 280530Z 2806/2906 03007KT 9999 OVC025
TEMPO 2806/2815 -SN BKN014
BECMG 2815/2818 BKN011
TEMPO 2815/2824 3500 -SN BR BKN007
BECMG 2900/2903 BKN020
BECMG 2903/2906 27010KT=

TAF EPKT 280530Z 2806/2906 02005KT 9999 OVC020
TEMPO 2806/2815 -SN BKN012
BECMG 2815/2818 BKN012
TEMPO 2815/2824 3500 -SN BR BKN006
BECMG 2900/2903 30010KT BKN020=

TAF EPLB 280530Z 2806/2906 05005KT 9999 OVC020
TEMPO 2815/2906 -SN BKN008
BECMG 2903/2906 30010KT=

TAF AMD EPLL 280625Z 2806/2906 02005KT 9999 BKN012
TEMPO 2806/2814 4000 -SN BR BKN006
PROB40 TEMPO 2806/2809 -FZDZ BKN003
BECMG 2812/2815 SCT012 BKN020
BECMG 2818/2820 30010KT
PROB40 TEMPO 2820/2906 BKN010 =

TAF EPMO 280530Z 2806/2906 35005KT 4000 BR BKN004 BKN008
BECMG 2807/2810 8000 BKN016
BECMG 2820/2823 28010KT
PROB40 2822/2906 BKN010=

TAF EPPO 280530Z 2806/2906 01008KT 9999 OVC020
TEMPO 2821/2903 BKN009
BECMG 2903/2906 2500 -SN BR BKN004=

TAF EPRZ 280530Z 2806/2906 03013KT 9999 OVC025
PROB30 TEMPO 2806/2818 -SN BKN014
BECMG 2818/2821 32010KT BKN012
TEMPO 2818/2903 3500 -SN BR BKN007
BECMG 2903/2906 BKN025=

TAF EPSC 280530Z 2806/2906 VRB03KT 9999 OVC030
BECMG 2815/2818 24010KT
BECMG 2821/2823 3000 -SN BR BKN005
TEMPO 2900/2906 1000 FZDZ BR BKN002=

TAF EPWA 280530Z 2806/2906 02005KT 8000 SCT007 BKN020
PROB40 2806/2809 4000 BR BKN004 BKN008
BECMG 2815/2818 30010KT
PROB40 2820/2906 BKN010=

TAF EPWR 280530Z 2806/2906 36007KT 5000 BR OVC005
TEMPO 2806/2812 2500 -FZDZ -SG BR OVC003
BECMG 2812/2815 BKN030=